Time;durP1;ratioP1;P1;durP2;ratioP2;P2;SDS_P1;SDS_P2;PMS_P1;PMS_P2;Temp;Humidity;BMP_temperature;BMP_pressure;BME280_temperature;BME280_humidity;BME280_pressure;Samples;Min_cycle;Max_cycle;Signal;HPM_P1;HPM_P2
2022/03/26 00:00:35;;;;;;;31.93;15.10;;;5.10;75.10;;;;;;5046135;28;20467;-67
2022/03/26 00:03:01;;;;;;;30.90;13.10;;;5.00;76.20;;;;;;5037713;28;20701;-67
2022/03/26 00:05:27;;;;;;;28.63;12.77;;;5.00;76.40;;;;;;5042860;28;20949;-67
2022/03/26 00:07:53;;;;;;;42.47;11.87;;;5.00;76.80;;;;;;5036017;28;20424;-67
2022/03/26 00:10:18;;;;;;;32.97;12.60;;;5.00;76.80;;;;;;5033977;28;20302;-66
2022/03/26 00:12:44;;;;;;;26.47;13.90;;;5.00;76.80;;;;;;5038878;28;20194;-67
2022/03/26 00:15:10;;;;;;;28.03;11.70;;;5.00;76.70;;;;;;5030392;28;20704;-67
2022/03/26 00:17:36;;;;;;;29.90;13.13;;;5.00;76.60;;;;;;5037607;28;20182;-67
2022/03/26 00:20:03;;;;;;;31.40;13.73;;;4.90;76.70;;;;;;5040297;28;20910;-67
2022/03/26 00:22:29;;;;;;;33.03;13.47;;;4.90;76.80;;;;;;5036141;28;20423;-67
2022/03/26 00:24:54;;;;;;;27.47;13.17;;;4.80;76.50;;;;;;5033522;28;20425;-67
2022/03/26 00:27:20;;;;;;;32.17;12.73;;;4.80;76.80;;;;;;5037948;28;20858;-67
2022/03/26 00:29:46;;;;;;;32.10;12.50;;;4.70;77.00;;;;;;5042776;28;20186;-67
2022/03/26 00:32:12;;;;;;;32.57;12.63;;;4.70;77.10;;;;;;5043814;28;20311;-67
2022/03/26 00:34:38;;;;;;;37.73;13.97;;;4.60;77.30;;;;;;5044108;28;20305;-67
2022/03/26 00:37:04;;;;;;;30.90;13.60;;;4.70;77.50;;;;;;5042469;28;20444;-67
2022/03/26 00:39:30;;;;;;;35.67;12.40;;;4.70;77.30;;;;;;5038059;28;20513;-67
2022/03/26 00:41:57;;;;;;;29.10;12.73;;;4.70;77.40;;;;;;5034889;28;20519;-67
2022/03/26 00:44:23;;;;;;;38.10;15.30;;;4.60;78.00;;;;;;5039952;28;20960;-67
2022/03/26 00:46:49;;;;;;;26.17;11.47;;;4.60;77.50;;;;;;5034827;28;20433;-67
2022/03/26 00:49:16;;;;;;;31.47;14.13;;;4.50;77.70;;;;;;5045519;28;20932;-67
2022/03/26 00:51:41;;;;;;;37.27;13.50;;;4.50;78.00;;;;;;5044862;28;20232;-67
2022/03/26 00:54:11;;;;;;;31.57;13.70;;;4.50;78.10;;;;;;5034275;28;20475;-67
2022/03/26 00:56:40;;;;;;;27.77;13.43;;;4.50;78.40;;;;;;5038572;28;20182;-67
2022/03/26 00:59:07;;;;;;;31.67;13.07;;;4.40;78.40;;;;;;5039876;28;20429;-66
2022/03/26 01:01:34;;;;;;;25.53;10.43;;;4.40;78.60;;;;;;5037393;28;20448;-66
2022/03/26 01:04:00;;;;;;;35.83;13.63;;;4.30;78.50;;;;;;5033235;28;20464;-66
2022/03/26 01:06:26;;;;;;;36.13;14.20;;;4.20;79.00;;;;;;5043013;28;20462;-67
2022/03/26 01:08:52;;;;;;;32.13;14.87;;;4.10;79.20;;;;;;5045756;28;20493;-67
2022/03/26 01:11:18;;;;;;;34.77;13.97;;;4.10;79.90;;;;;;5041452;28;20893;-67
2022/03/26 01:13:44;;;;;;;35.00;15.10;;;4.10;79.10;;;;;;5050293;28;20755;-67
2022/03/26 01:16:12;;;;;;;30.23;12.47;;;4.00;79.80;;;;;;5041960;28;20185;-67
2022/03/26 01:18:38;;;;;;;25.20;11.90;;;3.90;79.90;;;;;;5050249;28;20424;-67
2022/03/26 01:21:04;;;;;;;28.40;12.93;;;3.80;80.60;;;;;;5041908;28;20412;-67
2022/03/26 01:23:30;;;;;;;27.23;12.70;;;3.80;81.00;;;;;;5044938;28;20849;-67
2022/03/26 01:25:56;;;;;;;33.43;13.23;;;3.70;80.80;;;;;;5041732;28;20466;-66
2022/03/26 01:28:22;;;;;;;29.87;11.83;;;3.70;81.00;;;;;;5036523;28;20231;-66
2022/03/26 01:30:47;;;;;;;42.33;13.27;;;3.70;81.20;;;;;;5038489;28;20519;-67
2022/03/26 01:33:13;;;;;;;32.90;13.97;;;3.70;80.80;;;;;;5047374;28;20186;-67
2022/03/26 01:35:39;;;;;;;29.30;12.47;;;3.70;81.10;;;;;;5048060;28;20193;-67
2022/03/26 01:38:06;;;;;;;28.13;12.50;;;3.70;81.60;;;;;;5046872;28;20210;-67
2022/03/26 01:40:35;;;;;;;29.77;13.10;;;3.70;81.50;;;;;;5049420;28;20424;-67
2022/03/26 01:43:01;;;;;;;33.10;13.20;;;3.70;81.50;;;;;;5036457;28;20441;-67
2022/03/26 01:45:27;;;;;;;32.60;13.33;;;3.60;81.30;;;;;;5036621;28;20427;-67
2022/03/26 01:47:54;;;;;;;31.70;13.80;;;3.60;81.70;;;;;;5048291;28;20456;-67
2022/03/26 01:50:20;;;;;;;24.63;13.17;;;3.50;81.20;;;;;;5037477;28;20536;-67
2022/03/26 01:52:45;;;;;;;32.37;14.00;;;3.50;81.50;;;;;;5045303;28;20546;-66
2022/03/26 01:55:11;;;;;;;40.00;13.50;;;3.40;82.40;;;;;;5040471;28;20210;-66
2022/03/26 01:57:38;;;;;;;35.87;12.03;;;3.30;82.60;;;;;;5046098;28;20177;-68
2022/03/26 02:00:05;;;;;;;32.97;13.43;;;3.30;82.70;;;;;;5040868;28;20205;-66
2022/03/26 02:02:31;;;;;;;32.07;13.00;;;3.20;82.90;;;;;;5038796;28;20420;-67
2022/03/26 02:04:57;;;;;;;22.53;11.47;;;3.30;82.80;;;;;;5045428;28;20432;-67
2022/03/26 02:07:23;;;;;;;30.03;12.73;;;3.30;82.80;;;;;;5041173;28;20186;-67
2022/03/26 02:09:49;;;;;;;26.30;10.93;;;3.20;82.40;;;;;;5040645;28;20431;-67
2022/03/26 02:12:25;;;;;;;34.43;12.80;;;3.10;82.60;;;;;;5036020;28;20217;-67
2022/03/26 02:14:52;;;;;;;29.00;12.33;;;3.10;83.90;;;;;;5049457;28;20229;-67
2022/03/26 02:17:18;;;;;;;41.67;14.97;;;3.00;84.20;;;;;;5049020;28;20443;-67
2022/03/26 02:19:49;;;;;;;27.97;12.17;;;3.00;83.90;;;;;;5048669;28;20420;-67
2022/03/26 02:22:15;;;;;;;35.00;13.23;;;3.00;83.90;;;;;;5043507;28;20419;-64
2022/03/26 02:24:41;;;;;;;44.10;11.90;;;3.00;83.60;;;;;;5048260;28;20420;-65
2022/03/26 02:27:08;;;;;;;23.80;11.67;;;3.00;83.30;;;;;;5048784;28;20181;-66
2022/03/26 02:29:33;;;;;;;29.30;12.80;;;3.00;83.40;;;;;;5048244;28;20269;-66
2022/03/26 02:31:59;;;;;;;33.40;14.03;;;3.00;83.40;;;;;;5046782;28;21000;-66
2022/03/26 02:34:26;;;;;;;33.00;13.30;;;3.10;83.40;;;;;;5046657;28;20201;-66
2022/03/26 02:36:55;;;;;;;35.00;13.00;;;3.10;83.10;;;;;;5048137;28;20789;-66
2022/03/26 02:39:21;;;;;;;35.47;13.70;;;3.10;83.10;;;;;;5043332;28;20458;-66
2022/03/26 02:41:47;;;;;;;32.40;12.53;;;3.00;83.20;;;;;;5048146;28;20806;-66
2022/03/26 02:44:12;;;;;;;31.20;12.20;;;2.90;83.80;;;;;;5048423;28;20206;-66
2022/03/26 02:46:38;;;;;;;26.53;11.87;;;2.90;84.20;;;;;;5047370;28;20193;-66
2022/03/26 02:49:04;;;;;;;32.17;13.73;;;2.90;84.10;;;;;;5050460;28;20252;-66
2022/03/26 02:51:30;;;;;;;33.50;14.40;;;2.90;84.00;;;;;;5048749;28;20188;-66
2022/03/26 02:53:56;;;;;;;34.97;11.30;;;2.90;83.80;;;;;;5048084;28;20595;-69
2022/03/26 02:56:22;;;;;;;26.03;12.20;;;2.80;83.70;;;;;;5048567;28;20187;-66
2022/03/26 02:58:48;;;;;;;32.77;12.63;;;2.80;83.80;;;;;;5047924;28;20416;-66
2022/03/26 03:01:14;;;;;;;33.67;13.90;;;2.70;84.10;;;;;;5048507;28;20201;-66
2022/03/26 03:03:40;;;;;;;37.43;17.37;;;2.80;84.30;;;;;;5048063;28;20475;-66
2022/03/26 03:06:06;;;;;;;31.63;13.37;;;2.80;84.50;;;;;;5048122;28;20181;-66
2022/03/26 03:08:33;;;;;;;41.23;14.77;;;2.80;84.20;;;;;;5047195;28;20446;-65
2022/03/26 03:10:59;;;;;;;34.97;14.00;;;2.70;84.10;;;;;;5048384;28;20251;-65
2022/03/26 03:13:24;;;;;;;30.27;14.00;;;2.70;84.70;;;;;;5047817;28;20486;-66
2022/03/26 03:15:51;;;;;;;27.23;13.60;;;2.70;84.70;;;;;;5048376;28;20181;-66
2022/03/26 03:18:18;;;;;;;29.83;13.30;;;2.60;85.00;;;;;;5047541;28;20181;-66
2022/03/26 03:20:44;;;;;;;42.57;15.73;;;2.60;84.80;;;;;;5048195;28;20630;-66
2022/03/26 03:23:10;;;;;;;28.37;12.60;;;2.60;85.60;;;;;;5042664;28;20420;-66
2022/03/26 03:25:35;;;;;;;38.30;14.00;;;2.60;85.30;;;;;;5048228;28;20492;-66
2022/03/26 03:28:02;;;;;;;32.37;12.57;;;2.60;85.40;;;;;;5048018;28;20182;-66
2022/03/26 03:30:28;;;;;;;29.10;12.77;;;2.50;84.70;;;;;;5048065;28;20181;-65
2022/03/26 03:32:54;;;;;;;37.83;15.20;;;2.40;85.20;;;;;;5047287;28;20569;-66
2022/03/26 03:35:21;;;;;;;31.57;13.80;;;2.40;85.90;;;;;;5047837;28;20204;-67
2022/03/26 03:37:47;;;;;;;41.90;14.87;;;2.40;86.00;;;;;;5047568;28;20932;-66
2022/03/26 03:40:13;;;;;;;33.73;13.53;;;2.40;86.10;;;;;;5047764;28;20507;-66
2022/03/26 03:42:40;;;;;;;25.17;11.33;;;2.40;86.30;;;;;;5047712;28;20222;-64
2022/03/26 03:45:07;;;;;;;35.93;11.93;;;2.40;85.80;;;;;;5047317;28;20421;-65
2022/03/26 03:47:33;;;;;;;30.10;14.17;;;2.40;86.30;;;;;;5047981;28;20447;-66
2022/03/26 03:49:59;;;;;;;28.93;11.40;;;2.30;86.00;;;;;;5047937;28;20801;-66
2022/03/26 03:52:24;;;;;;;39.97;13.30;;;2.40;86.40;;;;;;5047664;28;20185;-65
2022/03/26 03:54:50;;;;;;;33.90;13.87;;;2.30;86.60;;;;;;5054208;28;20522;-65
2022/03/26 03:57:16;;;;;;;29.53;12.53;;;2.40;86.50;;;;;;5047900;28;20178;-66
2022/03/26 03:59:42;;;;;;;33.30;12.93;;;2.40;86.10;;;;;;5050533;28;20619;-65
2022/03/26 04:02:11;;;;;;;26.43;12.13;;;2.30;86.40;;;;;;5050732;28;20257;-66
2022/03/26 04:04:38;;;;;;;35.73;13.50;;;2.20;86.60;;;;;;5054125;28;20193;-67
2022/03/26 04:07:05;;;;;;;47.73;15.10;;;2.10;86.60;;;;;;5047255;28;20432;-66
2022/03/26 04:09:30;;;;;;;34.97;12.50;;;2.10;86.80;;;;;;5046975;28;21287;-65
2022/03/26 04:11:56;;;;;;;29.17;13.33;;;2.10;86.90;;;;;;5047407;28;20534;-66
2022/03/26 04:14:22;;;;;;;32.40;11.97;;;2.00;87.40;;;;;;5047117;28;20244;-66
2022/03/26 04:16:48;;;;;;;36.33;13.40;;;1.90;87.30;;;;;;5052627;28;20190;-65
2022/03/26 04:19:13;;;;;;;40.63;14.17;;;1.90;88.10;;;;;;5047481;28;20177;-65
2022/03/26 04:21:39;;;;;;;36.17;15.37;;;1.90;88.30;;;;;;5047754;28;20423;-66
2022/03/26 04:24:05;;;;;;;43.97;13.27;;;1.80;88.10;;;;;;5046843;28;20268;-66
2022/03/26 04:26:30;;;;;;;34.67;13.37;;;1.80;88.20;;;;;;5046862;28;20193;-66
2022/03/26 04:28:57;;;;;;;52.50;15.17;;;1.80;88.10;;;;;;5047058;28;20196;-65
2022/03/26 04:31:22;;;;;;;32.67;12.90;;;1.80;88.60;;;;;;5047383;28;20909;-66
2022/03/26 04:33:48;;;;;;;28.47;13.07;;;1.80;88.40;;;;;;5042863;28;20467;-66
2022/03/26 04:36:13;;;;;;;37.13;13.37;;;1.90;88.20;;;;;;5044898;28;20499;-66
2022/03/26 04:38:39;;;;;;;34.63;13.67;;;1.80;87.70;;;;;;5045077;28;20182;-66
2022/03/26 04:41:05;;;;;;;32.97;13.47;;;1.80;88.00;;;;;;5045725;28;20209;-66
2022/03/26 04:43:31;;;;;;;33.03;13.17;;;1.80;87.30;;;;;;5046157;28;20283;-66
2022/03/26 04:45:56;;;;;;;29.53;13.17;;;1.70;88.00;;;;;;5049741;28;20194;-66
2022/03/26 04:48:22;;;;;;;32.00;13.83;;;1.70;88.70;;;;;;5049982;28;20178;-66
2022/03/26 04:50:47;;;;;;;34.97;13.90;;;1.70;88.70;;;;;;5050501;28;20579;-66
2022/03/26 04:53:13;;;;;;;31.13;12.90;;;1.60;88.70;;;;;;5050264;28;20271;-66
2022/03/26 04:55:39;;;;;;;37.60;15.07;;;1.50;88.70;;;;;;5050972;28;20224;-66
2022/03/26 04:58:05;;;;;;;38.17;13.30;;;1.40;89.40;;;;;;5050601;28;20252;-66
2022/03/26 05:00:30;;;;;;;32.40;13.87;;;1.50;89.80;;;;;;5050717;28;20292;-66
2022/03/26 05:02:56;;;;;;;28.40;12.00;;;1.40;89.60;;;;;;5062771;28;20940;-66
2022/03/26 05:05:22;;;;;;;26.13;11.40;;;1.40;90.00;;;;;;5051057;28;20638;-65
2022/03/26 05:07:47;;;;;;;36.20;15.40;;;1.30;90.00;;;;;;5050283;28;20192;-65
2022/03/26 05:10:13;;;;;;;37.33;14.07;;;1.30;90.10;;;;;;5050405;28;20212;-65
2022/03/26 05:12:39;;;;;;;33.93;13.97;;;1.40;90.30;;;;;;5050453;28;20225;-66
2022/03/26 05:15:05;;;;;;;31.20;13.07;;;1.40;90.00;;;;;;5050562;28;20460;-67
2022/03/26 05:17:31;;;;;;;25.93;12.13;;;1.40;89.70;;;;;;5050542;28;20641;-66
2022/03/26 05:19:57;;;;;;;35.40;13.70;;;1.40;90.10;;;;;;5050327;28;20539;-66
2022/03/26 05:22:22;;;;;;;34.20;13.87;;;1.40;90.20;;;;;;5050069;28;20188;-66
2022/03/26 05:24:48;;;;;;;29.83;12.23;;;1.40;90.30;;;;;;5052498;28;21013;-66
2022/03/26 05:27:13;;;;;;;26.53;12.97;;;1.40;89.90;;;;;;5050902;28;20190;-66
2022/03/26 05:29:39;;;;;;;42.80;15.67;;;1.40;89.80;;;;;;5050299;28;20974;-66
2022/03/26 05:32:06;;;;;;;31.80;13.57;;;1.30;90.00;;;;;;5050429;28;20235;-66
2022/03/26 05:34:32;;;;;;;32.30;13.50;;;1.20;90.00;;;;;;5049944;28;20252;-67
2022/03/26 05:36:58;;;;;;;30.50;14.10;;;1.20;90.30;;;;;;5049814;28;20518;-66
2022/03/26 05:39:24;;;;;;;33.50;13.13;;;1.30;90.30;;;;;;5049167;28;20446;-66
2022/03/26 05:41:50;;;;;;;31.00;13.50;;;1.40;90.30;;;;;;5050310;28;20228;-65
2022/03/26 05:44:16;;;;;;;49.13;14.73;;;1.30;90.10;;;;;;5049945;28;20273;-65
2022/03/26 05:46:42;;;;;;;30.33;14.83;;;1.30;90.20;;;;;;5049696;28;20511;-66
2022/03/26 05:49:09;;;;;;;38.47;15.37;;;1.30;90.20;;;;;;5049176;28;20507;-66
2022/03/26 05:51:34;;;;;;;32.03;13.57;;;1.30;90.40;;;;;;5050186;28;20435;-65
2022/03/26 05:54:00;;;;;;;37.37;12.77;;;1.30;90.60;;;;;;5049118;28;20452;-66
2022/03/26 05:56:26;;;;;;;31.67;13.10;;;1.30;90.70;;;;;;5048785;28;20926;-66
2022/03/26 05:58:52;;;;;;;36.23;13.40;;;1.50;90.80;;;;;;5049721;28;20180;-66
2022/03/26 06:01:17;;;;;;;31.17;13.27;;;1.50;90.60;;;;;;5050001;28;20201;-66
2022/03/26 06:03:43;;;;;;;28.87;12.37;;;1.60;90.80;;;;;;5053684;28;20186;-66
2022/03/26 06:06:09;;;;;;;43.90;12.90;;;1.70;90.50;;;;;;5053759;28;20867;-65
2022/03/26 06:08:35;;;;;;;27.10;11.60;;;1.70;90.50;;;;;;5049125;28;20591;-66
2022/03/26 06:11:00;;;;;;;27.13;13.83;;;1.80;90.40;;;;;;5049733;28;20198;-64
2022/03/26 06:13:26;;;;;;;32.60;13.20;;;1.90;90.30;;;;;;5049567;28;20209;-65
2022/03/26 06:15:51;;;;;;;29.20;12.00;;;1.80;90.10;;;;;;5049913;28;20265;-66
2022/03/26 06:18:17;;;;;;;35.93;13.23;;;1.90;90.10;;;;;;5049474;28;20200;-66
2022/03/26 06:20:42;;;;;;;39.50;14.23;;;1.90;90.30;;;;;;5049676;28;20190;-66
2022/03/26 06:23:08;;;;;;;41.23;14.70;;;2.00;90.40;;;;;;5049275;28;20186;-66
2022/03/26 06:25:34;;;;;;;31.13;11.70;;;2.10;90.70;;;;;;5049003;28;20603;-66
2022/03/26 06:28:00;;;;;;;39.73;14.47;;;2.20;90.80;;;;;;5049169;28;20195;-66
2022/03/26 06:30:26;;;;;;;33.40;13.73;;;2.40;90.70;;;;;;5048878;28;20335;-66
2022/03/26 06:32:52;;;;;;;36.20;14.43;;;2.50;90.50;;;;;;5048624;28;20508;-66
2022/03/26 06:35:18;;;;;;;31.50;13.30;;;2.60;90.20;;;;;;5046135;28;20227;-66
2022/03/26 06:37:44;;;;;;;44.57;16.97;;;2.70;90.00;;;;;;5047598;28;20928;-66
2022/03/26 06:40:10;;;;;;;32.53;14.20;;;2.80;90.10;;;;;;5041854;28;20425;-66
2022/03/26 06:42:35;;;;;;;35.93;13.60;;;3.00;90.30;;;;;;5048893;28;20213;-66
2022/03/26 06:45:01;;;;;;;29.33;12.20;;;3.20;90.10;;;;;;5048193;28;20452;-66
2022/03/26 06:47:27;;;;;;;30.83;14.20;;;3.30;89.70;;;;;;5049042;28;20539;-66
2022/03/26 06:49:54;;;;;;;29.83;13.83;;;3.50;88.70;;;;;;5048579;28;20240;-66
2022/03/26 06:52:22;;;;;;;38.50;14.80;;;3.60;88.10;;;;;;5049273;28;20420;-66
2022/03/26 06:54:48;;;;;;;35.33;14.80;;;3.60;87.60;;;;;;5048715;28;20472;-66
2022/03/26 06:57:13;;;;;;;37.47;15.03;;;3.70;87.70;;;;;;5049010;28;20478;-66
2022/03/26 06:59:39;;;;;;;41.27;15.80;;;3.90;87.40;;;;;;5055051;28;20189;-66
2022/03/26 07:02:05;;;;;;;41.50;15.43;;;4.10;86.50;;;;;;5049135;28;20227;-66
2022/03/26 07:04:30;;;;;;;37.17;15.60;;;4.30;86.10;;;;;;5049015;28;20181;-65
2022/03/26 07:06:56;;;;;;;37.07;14.37;;;4.50;85.80;;;;;;5048715;28;20217;-66
2022/03/26 07:09:23;;;;;;;29.20;14.23;;;4.70;85.40;;;;;;5051018;28;20209;-67
2022/03/26 07:11:50;;;;;;;35.60;14.20;;;4.90;85.00;;;;;;5048678;28;20615;-66
2022/03/26 07:14:15;;;;;;;33.93;13.70;;;5.20;84.80;;;;;;5052809;28;20474;-67
2022/03/26 07:16:41;;;;;;;33.97;14.00;;;5.50;83.60;;;;;;5050534;28;20448;-67
2022/03/26 07:19:07;;;;;;;41.60;14.97;;;5.70;83.00;;;;;;5048120;28;20964;-67
2022/03/26 07:21:33;;;;;;;37.93;14.27;;;6.10;82.70;;;;;;5048505;28;20217;-67
2022/03/26 07:23:58;;;;;;;28.23;12.97;;;6.70;80.60;;;;;;5047716;28;20228;-68
2022/03/26 07:26:24;;;;;;;26.43;12.80;;;7.40;78.70;;;;;;5049431;28;20282;-67
2022/03/26 07:28:50;;;;;;;35.93;14.40;;;8.10;77.20;;;;;;5047599;28;20638;-68
2022/03/26 07:31:16;;;;;;;36.47;14.97;;;8.60;74.40;;;;;;5048407;28;20198;-68
2022/03/26 07:33:42;;;;;;;33.40;14.37;;;9.00;74.30;;;;;;5048037;28;20419;-68
2022/03/26 07:36:07;;;;;;;30.70;15.07;;;9.80;72.10;;;;;;5044853;28;20649;-68
2022/03/26 07:38:33;;;;;;;30.13;13.03;;;10.20;68.40;;;;;;5047464;28;20181;-68
2022/03/26 07:40:59;;;;;;;34.23;14.03;;;10.90;68.40;;;;;;5048251;28;20181;-69
2022/03/26 07:43:24;;;;;;;37.90;13.83;;;11.80;65.70;;;;;;5053838;28;20193;-69
2022/03/26 07:45:50;;;;;;;32.10;13.40;;;12.70;63.00;;;;;;5047299;28;20197;-69
2022/03/26 07:48:16;;;;;;;33.77;14.07;;;13.20;61.40;;;;;;5041007;28;20209;-69
2022/03/26 07:50:42;;;;;;;33.97;14.00;;;14.00;59.60;;;;;;5048091;28;20493;-69
2022/03/26 07:53:08;;;;;;;29.80;13.07;;;14.50;59.10;;;;;;5047332;28;20190;-67
2022/03/26 07:55:33;;;;;;;33.13;13.63;;;15.20;57.10;;;;;;5047664;28;20713;-67
2022/03/26 07:58:00;;;;;;;35.47;15.50;;;16.10;54.40;;;;;;5052805;28;20186;-68
2022/03/26 08:00:25;;;;;;;37.03;16.27;;;16.60;53.70;;;;;;5049050;28;20206;-70
2022/03/26 08:02:51;;;;;;;38.27;15.57;;;16.50;54.30;;;;;;5047679;28;21161;-69
2022/03/26 08:05:16;;;;;;;30.63;13.83;;;16.40;54.00;;;;;;5036712;28;20201;-69
2022/03/26 08:07:42;;;;;;;26.90;13.07;;;17.80;51.50;;;;;;5047020;28;20189;-69
2022/03/26 08:10:08;;;;;;;31.80;14.13;;;16.90;51.50;;;;;;5046586;28;20189;-69
2022/03/26 08:12:34;;;;;;;41.17;15.53;;;16.20;52.20;;;;;;5047417;28;20193;-69
2022/03/26 08:15:00;;;;;;;34.17;12.87;;;16.30;51.50;;;;;;5047461;28;20468;-69
2022/03/26 08:17:29;;;;;;;35.40;13.23;;;17.00;51.50;;;;;;5047326;28;20188;-69
2022/03/26 08:19:54;;;;;;;30.60;15.40;;;17.50;50.50;;;;;;5046411;28;20424;-69
2022/03/26 08:22:20;;;;;;;37.60;14.07;;;17.90;48.90;;;;;;5047439;28;20428;-69
2022/03/26 08:24:45;;;;;;;33.10;14.17;;;17.60;49.20;;;;;;5046823;28;20189;-69
2022/03/26 08:27:11;;;;;;;32.03;13.43;;;17.60;49.30;;;;;;5047591;28;20572;-68
2022/03/26 08:29:37;;;;;;;33.60;14.97;;;17.50;49.20;;;;;;5046728;28;20190;-70
2022/03/26 08:32:05;;;;;;;37.60;14.87;;;17.50;49.70;;;;;;5047161;28;20208;-69
2022/03/26 08:34:31;;;;;;;35.80;13.47;;;18.20;48.30;;;;;;5043262;28;20205;-69
2022/03/26 08:36:56;;;;;;;37.37;14.63;;;17.70;47.80;;;;;;5045827;28;20940;-69
2022/03/26 08:39:22;;;;;;;38.07;14.80;;;17.60;48.20;;;;;;5044867;28;20235;-69
2022/03/26 08:41:47;;;;;;;35.93;15.00;;;17.70;48.30;;;;;;5045877;28;20543;-69
2022/03/26 08:44:13;;;;;;;33.90;14.40;;;17.60;48.20;;;;;;5045868;28;20189;-69
2022/03/26 08:46:39;;;;;;;34.47;14.47;;;17.20;49.30;;;;;;5044907;28;20283;-69
2022/03/26 08:49:05;;;;;;;31.43;15.70;;;17.50;48.00;;;;;;5044916;28;20201;-69
2022/03/26 08:51:31;;;;;;;37.17;15.03;;;17.40;48.40;;;;;;5045957;28;20216;-69
2022/03/26 08:53:56;;;;;;;42.33;15.10;;;17.50;48.60;;;;;;5046116;28;20546;-69
2022/03/26 08:56:22;;;;;;;39.60;16.20;;;17.30;48.90;;;;;;5046854;28;20276;-68
2022/03/26 08:58:48;;;;;;;37.23;15.90;;;17.50;48.30;;;;;;5046073;28;20182;-69
2022/03/26 09:01:15;;;;;;;37.13;15.10;;;17.30;48.50;;;;;;5053785;28;20259;-69
2022/03/26 09:03:43;;;;;;;31.00;13.30;;;16.80;48.70;;;;;;5046830;28;20498;-68
2022/03/26 09:06:10;;;;;;;41.53;15.90;;;17.00;49.10;;;;;;5047181;28;20456;-69
2022/03/26 09:08:36;;;;;;;33.20;14.40;;;17.30;48.90;;;;;;5045930;28;20516;-69
2022/03/26 09:11:04;;;;;;;40.50;13.53;;;17.10;47.90;;;;;;5045967;28;20467;-69
2022/03/26 09:13:31;;;;;;;34.07;13.17;;;17.10;49.00;;;;;;5045675;28;20439;-69
2022/03/26 09:15:56;;;;;;;29.27;12.10;;;17.10;48.00;;;;;;5046949;28;20424;-69
2022/03/26 09:18:22;;;;;;;44.40;14.93;;;17.30;47.40;;;;;;5045968;28;20416;-69
2022/03/26 09:20:48;;;;;;;37.70;16.63;;;17.10;47.60;;;;;;5046747;28;20211;-69
2022/03/26 09:23:14;;;;;;;34.87;14.37;;;16.30;49.80;;;;;;5046057;28;20193;-69
2022/03/26 09:25:42;;;;;;;39.33;15.23;;;16.80;47.80;;;;;;5046513;28;20430;-68
2022/03/26 09:28:07;;;;;;;42.63;16.20;;;16.40;48.00;;;;;;5045731;28;20534;-72
2022/03/26 09:30:33;;;;;;;31.13;14.50;;;16.30;49.30;;;;;;5052815;28;20531;-72
2022/03/26 09:32:59;;;;;;;38.43;15.20;;;15.90;49.50;;;;;;5047967;28;20243;-72
2022/03/26 09:35:25;;;;;;;43.93;14.50;;;16.20;50.50;;;;;;5047851;28;20986;-71
2022/03/26 09:37:51;;;;;;;41.10;14.43;;;16.30;48.70;;;;;;5045830;28;20511;-71
2022/03/26 09:40:19;;;;;;;39.47;14.70;;;16.20;48.50;;;;;;5049354;28;20423;-71
2022/03/26 09:42:45;;;;;;;36.10;13.60;;;16.10;49.50;;;;;;5049965;28;20209;-71
2022/03/26 09:45:11;;;;;;;35.27;15.30;;;16.30;50.10;;;;;;5051006;28;20438;-71
2022/03/26 09:47:37;;;;;;;36.23;14.93;;;16.30;49.00;;;;;;5052179;28;20447;-71
2022/03/26 09:50:06;;;;;;;32.77;15.67;;;15.90;49.40;;;;;;5050313;28;20878;-71
2022/03/26 09:52:33;;;;;;;41.30;15.90;;;16.40;49.50;;;;;;5049628;28;20455;-71
2022/03/26 09:54:59;;;;;;;38.83;13.90;;;16.30;49.10;;;;;;5049431;28;20467;-71
2022/03/26 09:57:25;;;;;;;34.00;14.73;;;15.80;50.50;;;;;;5049504;28;20427;-73
2022/03/26 09:59:50;;;;;;;39.50;14.70;;;16.00;50.10;;;;;;5049378;28;20455;-72
2022/03/26 10:02:16;;;;;;;43.17;15.20;;;16.00;49.40;;;;;;5049687;28;20189;-70
2022/03/26 10:04:44;;;;;;;38.27;14.00;;;16.00;49.30;;;;;;5049365;28;20194;-71
2022/03/26 10:07:11;;;;;;;34.20;14.03;;;15.80;49.10;;;;;;5049713;28;20177;-70
2022/03/26 10:09:37;;;;;;;41.67;15.80;;;15.70;48.90;;;;;;5047588;28;20541;-70
2022/03/26 10:12:10;;;;;;;35.30;12.93;;;15.60;49.90;;;;;;5049386;28;20432;-70
2022/03/26 10:14:56;;;;;;;34.00;13.63;;;15.50;49.80;;;;;;5048828;28;20598;-68
2022/03/26 10:17:34;;;;;;;45.37;15.13;;;15.50;49.70;;;;;;5047149;28;20423;-68
2022/03/26 10:20:07;;;;;;;33.97;13.67;;;15.50;50.30;;;;;;5045993;28;20503;-69
2022/03/26 10:22:48;;;;;;;42.70;15.60;;;15.50;49.60;;;;;;5046259;28;20424;-67
2022/03/26 10:25:18;;;;;;;42.67;15.43;;;15.50;49.90;;;;;;5044686;28;20809;-68
2022/03/26 10:27:44;;;;;;;39.70;14.40;;;15.50;50.20;;;;;;5048023;28;20898;-68
2022/03/26 10:30:13;;;;;;;31.93;13.40;;;15.70;50.40;;;;;;5047552;28;20452;-67
2022/03/26 10:32:43;;;;;;;38.80;14.87;;;15.80;49.70;;;;;;5048070;28;20494;-67
2022/03/26 10:35:12;;;;;;;38.67;14.10;;;15.90;49.50;;;;;;5045711;28;20508;-67
2022/03/26 10:37:47;;;;;;;36.93;13.77;;;16.10;50.40;;;;;;5045764;28;20464;-67
2022/03/26 10:40:18;;;;;;;30.23;13.80;;;16.10;49.40;;;;;;5044963;28;20415;-66
2022/03/26 10:42:43;;;;;;;41.93;14.23;;;16.10;49.00;;;;;;5047538;28;20421;-66
2022/03/26 10:45:15;;;;;;;40.53;13.90;;;16.00;49.30;;;;;;5046799;28;21266;-66
2022/03/26 10:47:41;;;;;;;35.47;13.90;;;15.90;49.10;;;;;;5049657;28;20220;-66
2022/03/26 10:50:07;;;;;;;36.03;14.50;;;15.70;50.30;;;;;;5046980;28;20511;-67
2022/03/26 10:52:33;;;;;;;51.23;16.73;;;15.90;49.70;;;;;;5047072;28;20201;-66
2022/03/26 10:55:11;;;;;;;32.07;13.50;;;15.90;49.50;;;;;;5047368;28;20464;-66
2022/03/26 10:57:38;;;;;;;40.37;15.00;;;16.10;49.70;;;;;;5047044;28;20213;-67
2022/03/26 11:00:04;;;;;;;28.40;13.07;;;16.10;49.20;;;;;;5046954;28;20440;-67
2022/03/26 11:02:30;;;;;;;34.00;14.33;;;16.10;50.50;;;;;;5047240;28;20833;-66
2022/03/26 11:04:56;;;;;;;36.40;13.40;;;16.20;49.60;;;;;;5047501;28;20425;-66
2022/03/26 11:07:23;;;;;;;38.43;13.50;;;16.30;48.10;;;;;;5053439;28;20177;-66
2022/03/26 11:09:49;;;;;;;35.83;15.60;;;16.30;50.20;;;;;;5047262;28;20185;-66
2022/03/26 11:12:17;;;;;;;34.40;13.33;;;16.30;49.10;;;;;;5046936;28;20452;-66
2022/03/26 11:14:45;;;;;;;39.50;15.90;;;16.40;49.00;;;;;;5046938;28;20463;-66
2022/03/26 11:17:11;;;;;;;41.53;15.20;;;16.40;48.90;;;;;;5044232;28;20523;-66
2022/03/26 11:19:42;;;;;;;32.47;12.33;;;16.50;48.80;;;;;;5046598;28;20503;-66
2022/03/26 11:22:29;;;;;;;44.20;14.13;;;16.40;48.00;;;;;;5044792;28;20186;-67
2022/03/26 11:25:26;;;;;;;34.23;14.53;;;16.60;48.00;;;;;;5046687;28;20421;-66
2022/03/26 11:28:02;;;;;;;37.40;14.50;;;16.80;47.00;;;;;;5046918;28;20800;-66
2022/03/26 11:30:32;;;;;;;32.63;12.50;;;16.90;46.80;;;;;;5046606;28;20951;-66
2022/03/26 11:33:09;;;;;;;40.17;14.23;;;16.80;47.20;;;;;;5046807;28;20964;-66
2022/03/26 11:35:35;;;;;;;40.53;14.57;;;17.00;46.90;;;;;;5046279;28;20463;-67
2022/03/26 11:38:02;;;;;;;35.30;12.33;;;16.90;47.00;;;;;;5046023;28;20966;-66
2022/03/26 11:40:54;;;;;;;30.87;12.50;;;17.10;47.40;;;;;;5046396;28;20178;-66
2022/03/26 11:43:42;;;;;;;34.10;13.53;;;17.20;47.10;;;;;;5042415;28;20412;-66
2022/03/26 11:51:55;;;;;;;33.03;13.67;;;17.20;46.60;;;;;;5046696;28;20455;-66
2022/03/26 11:54:20;;;;;;;39.60;13.20;;;17.20;46.30;;;;;;5046153;28;20832;-67
2022/03/26 11:56:47;;;;;;;35.30;13.73;;;17.50;46.20;;;;;;5046482;28;20495;-67
2022/03/26 11:59:15;;;;;;;22.37;10.23;;;17.60;46.50;;;;;;5046194;28;20189;-66
2022/03/26 12:01:44;;;;;;;27.37;11.60;;;17.80;45.60;;;;;;5045991;28;20440;-66
2022/03/26 12:04:12;;;;;;;31.30;12.77;;;17.60;42.40;;;;;;5044638;28;20424;-66
2022/03/26 12:06:47;;;;;;;30.17;11.40;;;17.70;44.00;;;;;;5045979;28;20434;-66
2022/03/26 12:09:28;;;;;;;28.10;11.57;;;17.80;42.80;;;;;;5035360;28;20780;-67
2022/03/26 12:12:10;;;;;;;23.00;10.63;;;17.80;43.40;;;;;;5046947;28;20416;-67
2022/03/26 12:15:01;;;;;;;40.30;14.20;;;17.90;44.50;;;;;;5041243;28;20518;-67
2022/03/26 12:17:45;;;;;;;37.00;15.10;;;18.30;43.80;;;;;;5044517;28;20424;-70
2022/03/26 12:20:23;;;;;;;38.57;13.17;;;18.30;46.40;;;;;;5046526;28;20514;-70
2022/03/26 12:23:15;;;;;;;29.90;12.13;;;18.50;46.10;;;;;;5045460;28;20493;-70
2022/03/26 12:25:53;;;;;;;28.23;10.43;;;18.70;43.20;;;;;;5040451;28;20428;-71
2022/03/26 12:28:19;;;;;;;37.00;12.70;;;18.50;43.30;;;;;;5045191;28;20975;-70
2022/03/26 12:30:47;;;;;;;35.40;12.50;;;18.40;44.10;;;;;;5045643;28;20420;-71
2022/03/26 12:33:14;;;;;;;32.73;13.03;;;18.40;43.70;;;;;;5045945;28;20726;-70
2022/03/26 12:35:42;;;;;;;34.03;12.97;;;18.70;43.60;;;;;;5043752;28;20697;-70
2022/03/26 12:38:08;;;;;;;36.03;12.03;;;18.80;44.60;;;;;;5041852;28;20455;-66